Time;durP1;ratioP1;P1;durP2;ratioP2;P2;SDS_P1;SDS_P2;PMS_P1;PMS_P2;Temp;Humidity;BMP_temperature;BMP_pressure;BME280_temperature;BME280_humidity;BME280_pressure;Samples;Min_cycle;Max_cycle;Signal;HPM_P1;HPM_P2
2023/11/07 00:03:01;;;;;;;7.55;3.45;;;;;;;;;;6342507;27;20077;-64
2023/11/07 00:06:03;;;;;;;7.95;4.20;;;;;;;;;;6339244;27;20230;-64
2023/11/07 00:09:05;;;;;;;8.23;3.38;;;;;;;;;;6335915;28;20043;-64
2023/11/07 00:12:07;;;;;;;6.10;3.72;;;;;;;;;;6336771;27;20118;-64
2023/11/07 00:15:10;;;;;;;7.35;3.30;;;;;;;;;;6339459;27;20051;-64
2023/11/07 00:18:12;;;;;;;9.32;4.10;;;;;;;;;;6340258;27;20124;-64
2023/11/07 00:21:14;;;;;;;11.55;3.47;;;;;;;;;;6338550;27;20043;-64
2023/11/07 00:24:17;;;;;;;7.75;3.30;;;;;;;;;;6344610;27;20047;-64
2023/11/07 00:27:19;;;;;;;6.20;3.03;;;;;;;;;;6343915;27;20188;-63
2023/11/07 00:30:21;;;;;;;7.80;5.20;;;;;;;;;;6335013;28;20040;-63
2023/11/07 00:33:24;;;;;;;9.02;3.55;;;;;;;;;;6336962;27;20048;-63
2023/11/07 00:36:26;;;;;;;6.10;2.95;;;;;;;;;;6341071;27;20147;-63
2023/11/07 00:39:29;;;;;;;7.28;5.82;;;;;;;;;;6333959;28;20430;-64
2023/11/07 00:42:31;;;;;;;6.75;3.55;;;;;;;;;;6336611;28;20066;-64
2023/11/07 00:45:33;;;;;;;8.13;3.90;;;;;;;;;;6338606;28;20059;-64
2023/11/07 00:48:37;;;;;;;6.05;3.50;;;;;;;;;;6338622;27;20051;-63
2023/11/07 00:51:40;;;;;;;5.88;3.00;;;;;;;;;;6336922;27;20051;-64
2023/11/07 00:54:44;;;;;;;6.60;2.88;;;;;;;;;;6343364;27;20039;-64
2023/11/07 00:57:46;;;;;;;6.45;2.90;;;;;;;;;;6334436;28;20051;-64
2023/11/07 01:00:48;;;;;;;7.50;5.30;;;;;;;;;;6336452;28;20478;-64
2023/11/07 01:03:50;;;;;;;5.93;3.33;;;;;;;;;;6334508;28;20098;-64
2023/11/07 01:06:52;;;;;;;7.80;3.50;;;;;;;;;;6339841;28;20048;-64
2023/11/07 01:09:54;;;;;;;8.77;2.95;;;;;;;;;;6335350;28;20197;-67
2023/11/07 01:12:56;;;;;;;8.68;3.15;;;;;;;;;;6334219;28;20050;-64
2023/11/07 01:15:58;;;;;;;5.18;3.08;;;;;;;;;;6336670;28;20055;-65
2023/11/07 01:19:00;;;;;;;4.28;2.47;;;;;;;;;;6337097;28;20054;-65
2023/11/07 01:22:04;;;;;;;6.35;3.13;;;;;;;;;;6336967;28;20043;-65
2023/11/07 01:25:06;;;;;;;8.57;3.10;;;;;;;;;;6342463;28;20530;-66
2023/11/07 01:28:10;;;;;;;8.27;3.13;;;;;;;;;;6338038;28;20047;-64
2023/11/07 01:31:12;;;;;;;6.60;3.60;;;;;;;;;;6345697;27;20051;-64
2023/11/07 01:34:14;;;;;;;6.80;3.22;;;;;;;;;;6346835;27;20047;-65
2023/11/07 01:37:18;;;;;;;7.80;2.75;;;;;;;;;;6378159;27;20050;-64
2023/11/07 01:40:22;;;;;;;7.80;3.50;;;;;;;;;;6350176;27;20051;-64
2023/11/07 01:43:24;;;;;;;9.20;3.20;;;;;;;;;;6347128;27;20040;-64
2023/11/07 01:46:26;;;;;;;5.82;3.08;;;;;;;;;;6344455;27;20055;-65
2023/11/07 01:49:29;;;;;;;7.45;4.85;;;;;;;;;;6354804;27;20047;-64
2023/11/07 01:52:31;;;;;;;5.75;3.03;;;;;;;;;;6352280;27;20100;-64
2023/11/07 01:55:34;;;;;;;8.57;3.60;;;;;;;;;;6345951;27;20052;-64
2023/11/07 01:58:36;;;;;;;7.20;4.18;;;;;;;;;;6338996;27;20192;-64
2023/11/07 02:01:39;;;;;;;8.50;3.85;;;;;;;;;;6338990;28;20047;-64
2023/11/07 02:04:41;;;;;;;5.57;3.05;;;;;;;;;;6338285;28;20044;-65
2023/11/07 02:07:43;;;;;;;6.97;3.40;;;;;;;;;;6340489;27;20047;-64
2023/11/07 02:10:45;;;;;;;6.57;3.63;;;;;;;;;;6338082;28;20051;-64
2023/11/07 02:13:48;;;;;;;6.85;3.83;;;;;;;;;;6343382;27;20184;-65
2023/11/07 02:16:50;;;;;;;7.95;3.78;;;;;;;;;;6342897;27;20055;-64
2023/11/07 02:19:52;;;;;;;6.85;3.67;;;;;;;;;;6341132;27;20047;-64
2023/11/07 02:23:04;;;;;;;6.32;3.03;;;;;;;;;;6342767;27;20040;-64
2023/11/07 02:26:07;;;;;;;6.80;2.80;;;;;;;;;;6336991;27;20507;-64
2023/11/07 02:29:10;;;;;;;7.25;2.78;;;;;;;;;;6345333;27;20057;-64
2023/11/07 02:32:12;;;;;;;6.88;3.60;;;;;;;;;;6337765;28;20048;-64
2023/11/07 02:35:14;;;;;;;7.15;2.95;;;;;;;;;;6348949;27;20044;-64
2023/11/07 02:38:19;;;;;;;8.30;3.22;;;;;;;;;;6342346;27;20377;-64
2023/11/07 02:41:21;;;;;;;14.27;4.60;;;;;;;;;;6341654;27;20114;-64
2023/11/07 02:44:23;;;;;;;7.85;4.03;;;;;;;;;;6345345;27;20044;-64
2023/11/07 02:47:25;;;;;;;7.40;3.58;;;;;;;;;;6337806;28;20720;-64
2023/11/07 02:50:27;;;;;;;5.80;3.85;;;;;;;;;;6353699;27;20551;-64
2023/11/07 02:53:29;;;;;;;7.53;3.22;;;;;;;;;;6338895;28;20583;-64
2023/11/07 02:56:31;;;;;;;10.07;3.75;;;;;;;;;;6341147;27;20047;-64
2023/11/07 02:59:34;;;;;;;8.50;4.78;;;;;;;;;;6347935;27;20047;-64
2023/11/07 03:02:37;;;;;;;7.57;3.45;;;;;;;;;;6351979;27;20056;-64
2023/11/07 03:05:39;;;;;;;7.45;4.00;;;;;;;;;;6353995;27;20123;-64
2023/11/07 03:08:41;;;;;;;8.13;5.32;;;;;;;;;;6341741;27;20184;-64
2023/11/07 03:11:43;;;;;;;11.43;4.50;;;;;;;;;;6342143;27;20056;-65
2023/11/07 03:14:47;;;;;;;6.97;3.92;;;;;;;;;;6341847;27;20582;-65
2023/11/07 03:17:49;;;;;;;7.28;4.18;;;;;;;;;;6339269;27;20630;-64
2023/11/07 03:20:51;;;;;;;8.85;4.80;;;;;;;;;;6344813;27;20549;-64
2023/11/07 03:23:53;;;;;;;9.15;3.65;;;;;;;;;;6367537;27;20046;-65
2023/11/07 03:26:55;;;;;;;7.43;4.13;;;;;;;;;;6351584;27;20162;-64
2023/11/07 03:29:58;;;;;;;13.30;4.22;;;;;;;;;;6342184;27;20050;-65
2023/11/07 03:33:00;;;;;;;16.35;4.30;;;;;;;;;;6335631;28;20051;-64
2023/11/07 03:36:03;;;;;;;11.90;5.97;;;;;;;;;;6339637;27;20061;-64
2023/11/07 03:39:06;;;;;;;9.80;4.03;;;;;;;;;;6340941;27;20514;-64
2023/11/07 03:42:08;;;;;;;10.00;5.07;;;;;;;;;;6336683;28;20040;-64
2023/11/07 03:45:11;;;;;;;10.30;7.10;;;;;;;;;;6344323;27;20540;-65
2023/11/07 03:48:13;;;;;;;10.18;6.68;;;;;;;;;;6337034;27;20445;-64
2023/11/07 03:51:16;;;;;;;6.35;5.22;;;;;;;;;;6344437;27;20050;-64
2023/11/07 03:54:18;;;;;;;5.78;4.03;;;;;;;;;;6342885;27;20045;-65
2023/11/07 03:57:20;;;;;;;7.50;3.38;;;;;;;;;;6350236;27;20044;-64
2023/11/07 04:00:22;;;;;;;8.75;4.65;;;;;;;;;;6343239;27;20055;-65
2023/11/07 04:03:24;;;;;;;7.20;3.83;;;;;;;;;;6327101;28;20048;-65
2023/11/07 04:06:26;;;;;;;6.65;3.42;;;;;;;;;;6340454;27;20055;-63
2023/11/07 04:09:29;;;;;;;7.70;3.40;;;;;;;;;;6345880;27;20046;-63
2023/11/07 04:12:34;;;;;;;10.77;4.03;;;;;;;;;;6341810;27;20093;-63
2023/11/07 04:15:36;;;;;;;;;;;;;;;;;;6343161;27;20516;-64
2023/11/07 04:18:42;;;;;;;14.05;8.82;;;;;;;;;;6333793;27;19924;-63
2023/11/07 04:21:44;;;;;;;10.88;5.30;;;;;;;;;;6341119;27;20047;-62
2023/11/07 04:24:47;;;;;;;8.40;5.28;;;;;;;;;;6339402;27;20064;-64
2023/11/07 04:27:49;;;;;;;9.55;4.20;;;;;;;;;;6340074;27;20035;-64
2023/11/07 04:30:52;;;;;;;6.93;4.82;;;;;;;;;;6350547;27;20049;-64
2023/11/07 04:33:55;;;;;;;13.35;4.88;;;;;;;;;;6344961;27;20047;-64
2023/11/07 04:36:58;;;;;;;7.53;4.97;;;;;;;;;;6352952;27;20144;-63
2023/11/07 04:40:02;;;;;;;15.77;3.88;;;;;;;;;;6347730;27;20165;-63
2023/11/07 04:43:07;;;;;;;9.50;4.57;;;;;;;;;;6340288;27;20043;-64
2023/11/07 04:46:15;;;;;;;12.02;5.07;;;;;;;;;;6341698;27;20043;-64
2023/11/07 04:49:17;;;;;;;9.77;4.60;;;;;;;;;;6321924;28;20142;-64
2023/11/07 04:52:19;;;;;;;8.70;7.47;;;;;;;;;;6338844;27;20104;-63
2023/11/07 04:55:22;;;;;;;9.43;4.05;;;;;;;;;;6336554;28;20044;-64
2023/11/07 04:58:25;;;;;;;6.68;3.85;;;;;;;;;;6335776;28;20043;-63
2023/11/07 05:01:27;;;;;;;8.45;3.15;;;;;;;;;;6332192;28;20104;-64
2023/11/07 05:04:30;;;;;;;9.38;4.60;;;;;;;;;;6351042;27;20050;-64
2023/11/07 05:07:34;;;;;;;9.45;4.30;;;;;;;;;;6347921;27;20107;-64
2023/11/07 05:10:36;;;;;;;7.80;4.70;;;;;;;;;;6348619;27;20044;-63
2023/11/07 05:13:38;;;;;;;11.18;3.90;;;;;;;;;;6347968;27;20089;-64
2023/11/07 05:16:41;;;;;;;17.38;3.90;;;;;;;;;;6349913;27;20051;-63
2023/11/07 05:19:43;;;;;;;8.73;4.60;;;;;;;;;;6354724;27;20715;-63
2023/11/07 05:22:45;;;;;;;11.02;4.30;;;;;;;;;;6334061;27;20052;-64
2023/11/07 05:25:48;;;;;;;7.95;4.00;;;;;;;;;;6336329;27;20522;-63
2023/11/07 05:28:50;;;;;;;9.82;4.63;;;;;;;;;;6343562;27;20061;-63
2023/11/07 05:31:55;;;;;;;14.23;4.95;;;;;;;;;;6338415;27;20079;-63
2023/11/07 05:34:57;;;;;;;9.40;4.53;;;;;;;;;;6331368;27;20044;-63
2023/11/07 05:37:59;;;;;;;7.82;4.85;;;;;;;;;;6341786;27;20180;-64
2023/11/07 05:41:01;;;;;;;10.02;4.63;;;;;;;;;;6335956;27;20065;-63
2023/11/07 05:44:04;;;;;;;8.30;4.85;;;;;;;;;;6331586;27;20549;-63
2023/11/07 05:47:06;;;;;;;8.73;4.13;;;;;;;;;;6331912;27;20051;-63
2023/11/07 05:50:10;;;;;;;9.88;4.22;;;;;;;;;;6335771;27;20040;-63
2023/11/07 05:53:12;;;;;;;8.77;4.68;;;;;;;;;;6338912;27;20056;-65
2023/11/07 05:56:15;;;;;;;6.18;3.53;;;;;;;;;;6342504;27;20535;-64
2023/11/07 05:59:18;;;;;;;14.68;6.22;;;;;;;;;;6339952;27;20044;-64
2023/11/07 06:02:20;;;;;;;16.00;6.05;;;;;;;;;;6343816;27;20043;-65
2023/11/07 06:05:22;;;;;;;14.23;4.82;;;;;;;;;;6339840;27;20554;-64
2023/11/07 06:08:24;;;;;;;13.45;4.75;;;;;;;;;;6334887;27;20051;-64
2023/11/07 06:11:27;;;;;;;9.25;4.93;;;;;;;;;;6343214;27;20746;-64
2023/11/07 06:14:29;;;;;;;10.32;5.45;;;;;;;;;;6340478;27;20107;-64
2023/11/07 06:17:32;;;;;;;12.02;4.97;;;;;;;;;;6358962;27;20085;-64
2023/11/07 06:20:34;;;;;;;15.10;5.70;;;;;;;;;;6339165;27;20052;-65
2023/11/07 06:23:36;;;;;;;12.80;7.32;;;;;;;;;;6343404;27;20054;-66
2023/11/07 06:26:38;;;;;;;13.82;6.22;;;;;;;;;;6346685;27;20047;-65
2023/11/07 06:29:46;;;;;;;11.57;6.20;;;;;;;;;;6343277;27;20051;-64
2023/11/07 06:32:49;;;;;;;13.20;5.22;;;;;;;;;;6333082;27;20096;-65
2023/11/07 06:35:52;;;;;;;12.02;5.57;;;;;;;;;;6337097;27;20044;-65
2023/11/07 06:38:55;;;;;;;17.23;6.55;;;;;;;;;;6345643;27;20476;-64
2023/11/07 06:41:57;;;;;;;11.02;6.45;;;;;;;;;;6342774;27;20047;-63
2023/11/07 06:45:03;;;;;;;14.77;6.78;;;;;;;;;;6338373;27;20562;-64
2023/11/07 06:48:05;;;;;;;15.82;5.95;;;;;;;;;;6341899;27;20047;-66
2023/11/07 06:51:07;;;;;;;11.48;6.55;;;;;;;;;;6342549;27;20127;-65
2023/11/07 06:54:09;;;;;;;11.32;5.95;;;;;;;;;;6358026;27;20188;-65
2023/11/07 06:57:11;;;;;;;15.32;5.50;;;;;;;;;;6346356;27;20052;-65
2023/11/07 07:00:14;;;;;;;10.73;5.47;;;;;;;;;;6337463;27;20878;-65
2023/11/07 07:03:16;;;;;;;10.77;5.70;;;;;;;;;;6339157;27;20039;-65
2023/11/07 07:06:19;;;;;;;14.90;7.15;;;;;;;;;;6339186;27;20032;-65
2023/11/07 07:09:21;;;;;;;15.75;6.55;;;;;;;;;;6349469;27;20058;-65
2023/11/07 07:12:24;;;;;;;9.13;5.05;;;;;;;;;;6343806;27;20054;-65
2023/11/07 07:15:26;;;;;;;15.60;5.00;;;;;;;;;;6339100;27;20052;-65
2023/11/07 07:18:28;;;;;;;10.82;5.80;;;;;;;;;;6342359;27;20039;-65
2023/11/07 07:21:30;;;;;;;12.25;6.28;;;;;;;;;;6333739;27;20722;-65
2023/11/07 07:24:33;;;;;;;10.65;6.28;;;;;;;;;;6337831;27;20538;-65
2023/11/07 07:27:35;;;;;;;9.07;5.35;;;;;;;;;;6327735;27;20135;-66
2023/11/07 07:30:39;;;;;;;12.00;5.22;;;;;;;;;;6340428;27;20031;-65
2023/11/07 07:33:41;;;;;;;15.65;5.47;;;;;;;;;;6343168;27;20050;-65
2023/11/07 07:36:44;;;;;;;9.55;5.53;;;;;;;;;;6333249;27;20047;-65
2023/11/07 07:39:47;;;;;;;11.05;5.45;;;;;;;;;;6337760;27;20054;-65
2023/11/07 07:42:48;;;;;;;10.50;4.68;;;;;;;;;;6340904;27;20047;-65
2023/11/07 07:45:52;;;;;;;12.07;8.00;;;;;;;;;;6324648;27;20434;-65
2023/11/07 07:48:56;;;;;;;12.18;4.93;;;;;;;;;;6341866;27;20735;-66
2023/11/07 07:51:59;;;;;;;11.18;5.15;;;;;;;;;;6325585;27;20050;-65
2023/11/07 07:55:01;;;;;;;9.02;4.15;;;;;;;;;;6338306;27;20048;-66
2023/11/07 07:58:18;;;;;;;9.65;5.15;;;;;;;;;;6335442;27;20042;-66
2023/11/07 08:01:21;;;;;;;10.20;4.70;;;;;;;;;;6340007;27;20040;-66
2023/11/07 08:04:26;;;;;;;11.80;4.75;;;;;;;;;;6337602;27;20039;-65
2023/11/07 08:07:28;;;;;;;11.27;4.68;;;;;;;;;;6340968;27;20055;-66
2023/11/07 08:10:30;;;;;;;11.32;5.00;;;;;;;;;;6346269;27;20043;-66
2023/11/07 08:13:32;;;;;;;9.82;4.38;;;;;;;;;;6351122;27;20059;-65
2023/11/07 08:16:34;;;;;;;8.65;4.32;;;;;;;;;;6325846;28;20055;-66
2023/11/07 08:19:36;;;;;;;10.25;4.80;;;;;;;;;;6327988;27;20043;-66
2023/11/07 08:22:38;;;;;;;10.82;7.03;;;;;;;;;;6334295;27;20415;-65
2023/11/07 08:25:40;;;;;;;12.25;4.30;;;;;;;;;;6358814;27;20047;-64
2023/11/07 08:28:43;;;;;;;8.25;4.28;;;;;;;;;;6348697;27;20050;-64
2023/11/07 08:31:45;;;;;;;7.00;4.10;;;;;;;;;;6331516;27;20043;-66
2023/11/07 08:34:47;;;;;;;9.73;4.47;;;;;;;;;;6329021;27;20090;-66
2023/11/07 08:37:54;;;;;;;9.02;3.40;;;;;;;;;;6325244;27;20043;-66
2023/11/07 08:40:56;;;;;;;10.40;3.97;;;;;;;;;;6331267;27;20042;-66
2023/11/07 08:43:58;;;;;;;11.05;4.20;;;;;;;;;;6343461;27;20050;-66
2023/11/07 08:47:01;;;;;;;13.15;4.32;;;;;;;;;;6336074;27;20035;-66
2023/11/07 08:50:03;;;;;;;6.85;2.97;;;;;;;;;;6329539;28;20051;-65
2023/11/07 08:53:05;;;;;;;6.70;2.97;;;;;;;;;;6344834;27;20187;-66
2023/11/07 08:56:09;;;;;;;7.47;2.65;;;;;;;;;;6332564;28;20124;-66
2023/11/07 08:59:11;;;;;;;11.93;3.20;;;;;;;;;;6335747;27;20032;-66
2023/11/07 09:02:13;;;;;;;7.93;4.82;;;;;;;;;;6336481;28;20461;-65
2023/11/07 09:05:16;;;;;;;7.55;2.65;;;;;;;;;;6340625;28;20090;-66
2023/11/07 09:08:19;;;;;;;7.82;2.47;;;;;;;;;;6339578;28;20475;-66
2023/11/07 09:11:21;;;;;;;9.38;4.90;;;;;;;;;;6343125;27;20051;-65
2023/11/07 09:14:23;;;;;;;8.20;2.78;;;;;;;;;;6345518;27;20043;-66
2023/11/07 09:17:27;;;;;;;5.43;2.80;;;;;;;;;;6343336;27;20127;-66
2023/11/07 09:20:29;;;;;;;8.68;2.70;;;;;;;;;;6340300;28;20079;-65
2023/11/07 09:23:31;;;;;;;6.45;3.75;;;;;;;;;;6323844;28;20047;-67
2023/11/07 09:26:33;;;;;;;6.78;3.03;;;;;;;;;;6328051;28;20059;-66
2023/11/07 09:41:16;;;;;;;9.60;3.63;;;;;;;;;;6350273;27;20631;-65
2023/11/07 09:44:18;;;;;;;8.38;3.22;;;;;;;;;;6344030;28;20123;-66
2023/11/07 09:47:23;;;;;;;6.88;2.17;;;;;;;;;;6348141;27;20051;-66
2023/11/07 09:50:25;;;;;;;10.02;2.97;;;;;;;;;;6346900;28;21595;-65
2023/11/07 09:53:29;;;;;;;8.32;1.90;;;;;;;;;;6305534;28;20449;-66
2023/11/07 09:56:35;;;;;;;10.25;3.17;;;;;;;;;;6334274;28;20111;-65
2023/11/07 09:59:45;;;;;;;5.03;1.55;;;;;;;;;;6320115;28;20043;-66
2023/11/07 10:02:49;;;;;;;6.85;2.55;;;;;;;;;;6333827;28;20040;-66
2023/11/07 10:05:51;;;;;;;9.13;2.50;;;;;;;;;;6352485;28;20043;-66
2023/11/07 10:08:56;;;;;;;6.40;2.08;;;;;;;;;;6344246;28;20118;-66
2023/11/07 10:11:59;;;;;;;7.65;2.53;;;;;;;;;;6356852;27;20046;-67
2023/11/07 10:15:20;;;;;;;5.57;2.20;;;;;;;;;;6356808;27;20099;-65
2023/11/07 10:18:23;;;;;;;7.60;3.20;;;;;;;;;;6346637;27;20071;-66
2023/11/07 10:21:32;;;;;;;7.13;2.45;;;;;;;;;;6353648;28;20047;-66
2023/11/07 10:24:44;;;;;;;8.18;2.85;;;;;;;;;;6357100;28;20047;-66
2023/11/07 10:27:47;;;;;;;7.25;2.55;;;;;;;;;;6356526;27;20706;-66
2023/11/07 10:30:49;;;;;;;6.63;2.53;;;;;;;;;;6352205;28;20043;-66
2023/11/07 10:33:51;;;;;;;6.43;2.20;;;;;;;;;;6336171;28;20048;-66
2023/11/07 11:26:37;;;;;;;10.30;3.60;;;;;;;;;;6253347;27;1329385;-67
2023/11/07 11:29:47;;;;;;;8.23;2.38;;;;;;;;;;6283737;28;20048;-67
2023/11/07 11:33:05;;;;;;;6.90;3.83;;;;;;;;;;6301337;28;20055;-67
2023/11/07 11:36:44;;;;;;;6.80;1.52;;;;;;;;;;6281583;28;20044;-67
2023/11/07 11:39:46;;;;;;;8.38;3.45;;;;;;;;;;6301147;28;20044;-67
2023/11/07 11:43:03;;;;;;;7.03;3.70;;;;;;;;;;6297851;28;20055;-67
2023/11/07 11:46:14;;;;;;;6.18;3.00;;;;;;;;;;6291819;28;20040;-67
2023/11/07 11:49:18;;;;;;;6.07;1.35;;;;;;;;;;6300444;28;20086;-67
2023/11/07 11:52:34;;;;;;;7.05;3.83;;;;;;;;;;6299321;28;20047;-67
2023/11/07 11:55:58;;;;;;;7.75;1.70;;;;;;;;;;6296969;28;20784;-67
2023/11/07 11:59:03;;;;;;;6.97;4.43;;;;;;;;;;6300656;28;20048;-68
2023/11/07 12:02:07;;;;;;;7.40;3.65;;;;;;;;;;6297798;28;20254;-67
2023/11/07 12:05:12;;;;;;;9.15;4.35;;;;;;;;;;6305590;28;20041;-66
2023/11/07 12:08:36;;;;;;;4.35;3.15;;;;;;;;;;6302424;28;20052;-66
2023/11/07 12:11:43;;;;;;;5.40;3.38;;;;;;;;;;6300623;28;20048;-66
2023/11/07 12:15:07;;;;;;;8.50;3.80;;;;;;;;;;6300779;28;20127;-66
2023/11/07 12:18:09;;;;;;;12.85;3.70;;;;;;;;;;6332839;28;20040;-67
2023/11/07 12:21:28;;;;;;;10.48;3.17;;;;;;;;;;6297082;28;20060;-67
2023/11/07 12:24:31;;;;;;;5.97;3.70;;;;;;;;;;6296124;28;20175;-66
2023/11/07 12:27:34;;;;;;;9.48;3.67;;;;;;;;;;6298986;28;20044;-66
2023/11/07 12:30:36;;;;;;;21.63;5.78;;;;;;;;;;6273697;28;20045;-67
2023/11/07 12:33:42;;;;;;;8.65;3.63;;;;;;;;;;6275528;28;20529;-67
2023/11/07 12:36:46;;;;;;;11.07;6.97;;;;;;;;;;6286141;28;20044;-67
2023/11/07 12:39:48;;;;;;;6.38;1.58;;;;;;;;;;6280327;28;20485;-67
2023/11/07 12:42:52;;;;;;;5.30;3.80;;;;;;;;;;6262602;28;20037;-66
2023/11/07 12:45:55;;;;;;;7.80;3.42;;;;;;;;;;6280890;28;20036;-66
2023/11/07 12:48:57;;;;;;;5.70;2.95;;;;;;;;;;6273887;28;20075;-66
2023/11/07 12:51:59;;;;;;;6.32;3.22;;;;;;;;;;6271179;28;20056;-66
2023/11/07 12:55:21;;;;;;;7.55;3.70;;;;;;;;;;6280287;28;20048;-67
2023/11/07 12:58:27;;;;;;;6.85;5.03;;;;;;;;;;6281499;28;20182;-67
2023/11/07 13:01:29;;;;;;;7.65;3.45;;;;;;;;;;6279144;28;20045;-67
2023/11/07 13:04:33;;;;;;;8.80;1.38;;;;;;;;;;6278581;28;20770;-68
2023/11/07 13:07:35;;;;;;;7.88;2.92;;;;;;;;;;6280385;28;20041;-67
2023/11/07 13:10:37;;;;;;;6.25;3.90;;;;;;;;;;6279554;28;20098;-68
2023/11/07 13:13:44;;;;;;;7.47;1.48;;;;;;;;;;6282722;28;20044;-68
2023/11/07 13:16:47;;;;;;;7.53;1.77;;;;;;;;;;6284857;28;20525;-67
2023/11/07 13:19:50;;;;;;;8.15;3.70;;;;;;;;;;6288402;28;20048;-68
2023/11/07 13:22:52;;;;;;;9.43;3.75;;;;;;;;;;6288013;28;20048;-67
2023/11/07 13:25:54;;;;;;;8.77;3.28;;;;;;;;;;6288016;28;20048;-67
2023/11/07 13:28:56;;;;;;;9.02;3.83;;;;;;;;;;6278642;28;20105;-67
2023/11/07 13:31:59;;;;;;;10.50;4.57;;;;;;;;;;6280334;28;20048;-67
2023/11/07 13:35:07;;;;;;;5.35;1.25;;;;;;;;;;6260819;28;20493;-68
2023/11/07 13:38:10;;;;;;;8.60;4.03;;;;;;;;;;6284033;28;20143;-67
2023/11/07 13:41:12;;;;;;;5.63;3.00;;;;;;;;;;6282905;28;20059;-67
2023/11/07 13:44:14;;;;;;;6.38;3.58;;;;;;;;;;6280203;28;20082;-67
2023/11/07 13:47:16;;;;;;;6.68;3.05;;;;;;;;;;6280499;28;20127;-67
2023/11/07 13:50:19;;;;;;;17.55;3.55;;;;;;;;;;6280964;28;20045;-67
2023/11/07 13:53:21;;;;;;;14.55;3.42;;;;;;;;;;6271781;28;20094;-68
2023/11/07 13:56:25;;;;;;;8.82;3.22;;;;;;;;;;6282779;28;20041;-67
2023/11/07 13:59:27;;;;;;;9.77;3.55;;;;;;;;;;6275411;28;20055;-67
2023/11/07 14:02:29;;;;;;;17.35;5.95;;;;;;;;;;6279026;28;20127;-66
2023/11/07 14:05:31;;;;;;;11.48;2.55;;;;;;;;;;6273565;28;20452;-66
2023/11/07 14:08:33;;;;;;;14.63;7.70;;;;;;;;;;6277617;28;20109;-66
2023/11/07 14:11:36;;;;;;;9.38;3.47;;;;;;;;;;6281291;28;20059;-66
2023/11/07 14:14:40;;;;;;;9.85;5.28;;;;;;;;;;6278791;28;20074;-66
2023/11/07 14:17:43;;;;;;;6.97;3.60;;;;;;;;;;6274012;28;20059;-66
2023/11/07 14:20:47;;;;;;;8.35;3.25;;;;;;;;;;6281511;28;20044;-66
2023/11/07 14:23:50;;;;;;;5.22;2.97;;;;;;;;;;6275035;28;20549;-66
2023/11/07 14:26:53;;;;;;;9.30;1.67;;;;;;;;;;6283325;28;20438;-66
2023/11/07 14:29:56;;;;;;;7.93;1.65;;;;;;;;;;6284128;28;20437;-66
2023/11/07 14:33:02;;;;;;;8.13;4.18;;;;;;;;;;6279116;28;20049;-66
2023/11/07 14:36:07;;;;;;;9.23;4.55;;;;;;;;;;6282569;28;20048;-66
2023/11/07 14:39:12;;;;;;;10.13;3.10;;;;;;;;;;6285276;28;20055;-66
2023/11/07 14:42:16;;;;;;;8.52;3.67;;;;;;;;;;6277293;28;20060;-65
2023/11/07 14:45:21;;;;;;;10.95;4.03;;;;;;;;;;6280559;28;20043;-65
2023/11/07 14:48:24;;;;;;;12.25;3.35;;;;;;;;;;6284177;28;20048;-65
2023/11/07 14:51:26;;;;;;;12.02;4.63;;;;;;;;;;6280467;28;20052;-66
2023/11/07 14:54:28;;;;;;;7.75;3.35;;;;;;;;;;6280444;28;20049;-65
2023/11/07 14:57:31;;;;;;;11.10;4.18;;;;;;;;;;6260849;28;20071;-65
2023/11/07 15:00:39;;;;;;;8.68;3.42;;;;;;;;;;6270847;28;20056;-65
2023/11/07 15:03:43;;;;;;;6.68;3.60;;;;;;;;;;6283891;28;20045;-65
2023/11/07 15:06:46;;;;;;;13.98;4.82;;;;;;;;;;6282646;28;20067;-65
2023/11/07 15:09:48;;;;;;;11.15;5.38;;;;;;;;;;6285669;28;20055;-63
2023/11/07 15:12:51;;;;;;;15.70;6.25;;;;;;;;;;6305581;28;20106;-63
2023/11/07 15:15:53;;;;;;;11.40;2.50;;;;;;;;;;6285729;28;20047;-63
2023/11/07 15:18:56;;;;;;;10.65;2.47;;;;;;;;;;6284482;28;20045;-64
2023/11/07 15:21:58;;;;;;;11.32;5.18;;;;;;;;;;6285377;28;20048;-63
2023/11/07 15:25:00;;;;;;;13.73;5.70;;;;;;;;;;6285079;28;20047;-64
2023/11/07 15:28:03;;;;;;;8.10;3.97;;;;;;;;;;6271916;28;20094;-64
2023/11/07 15:31:07;;;;;;;11.23;4.03;;;;;;;;;;6284335;28;20049;-64
2023/11/07 15:34:09;;;;;;;10.32;4.40;;;;;;;;;;6275686;28;20167;-64
2023/11/07 15:37:11;;;;;;;12.07;4.75;;;;;;;;;;6279324;28;20052;-64
2023/11/07 15:40:15;;;;;;;11.88;4.53;;;;;;;;;;6279976;28;20053;-64
2023/11/07 15:43:19;;;;;;;13.00;5.30;;;;;;;;;;6282557;28;20521;-64
2023/11/07 15:46:23;;;;;;;12.65;8.25;;;;;;;;;;6277325;28;20082;-64
2023/11/07 15:49:26;;;;;;;8.07;3.45;;;;;;;;;;6285840;28;20061;-64
2023/11/07 15:52:30;;;;;;;17.63;7.47;;;;;;;;;;6285350;28;20051;-64
2023/11/07 15:55:33;;;;;;;15.93;5.80;;;;;;;;;;6277431;28;20503;-64
2023/11/07 15:58:36;;;;;;;19.00;5.43;;;;;;;;;;6260868;28;20075;-65
2023/11/07 16:01:39;;;;;;;16.98;8.60;;;;;;;;;;6284554;28;20036;-64
2023/11/07 16:04:41;;;;;;;18.30;13.75;;;;;;;;;;6275140;28;20074;-64
2023/11/07 16:07:43;;;;;;;18.33;10.90;;;;;;;;;;6278822;28;20063;-64
2023/11/07 16:10:46;;;;;;;12.05;4.95;;;;;;;;;;6277121;28;20041;-65
2023/11/07 16:13:48;;;;;;;20.38;15.50;;;;;;;;;;6288575;28;20049;-64
2023/11/07 16:16:50;;;;;;;10.10;3.58;;;;;;;;;;6283082;28;20044;-65
2023/11/07 16:19:52;;;;;;;9.40;4.95;;;;;;;;;;6283320;28;20055;-64
2023/11/07 16:22:56;;;;;;;10.73;3.53;;;;;;;;;;6287661;28;20052;-64
2023/11/07 16:26:01;;;;;;;11.88;5.80;;;;;;;;;;6284823;28;20044;-64
2023/11/07 16:29:03;;;;;;;11.00;4.85;;;;;;;;;;6274893;28;20117;-64
2023/11/07 16:32:06;;;;;;;12.63;7.10;;;;;;;;;;6276496;28;20052;-63
2023/11/07 16:35:09;;;;;;;10.38;6.45;;;;;;;;;;6275713;28;20045;-64
2023/11/07 16:38:12;;;;;;;7.10;5.75;;;;;;;;;;6277091;28;20041;-64
2023/11/07 16:41:17;;;;;;;9.25;4.65;;;;;;;;;;6282557;28;20183;-64
2023/11/07 16:44:20;;;;;;;10.98;7.13;;;;;;;;;;6267501;28;20068;-65
2023/11/07 16:47:22;;;;;;;10.25;4.28;;;;;;;;;;6279008;28;20635;-65
2023/11/07 16:50:24;;;;;;;9.35;6.63;;;;;;;;;;6275470;28;20043;-65
2023/11/07 16:53:26;;;;;;;10.68;9.10;;;;;;;;;;6280215;28;20047;-65
2023/11/07 16:56:28;;;;;;;11.05;7.38;;;;;;;;;;6281634;28;20049;-65
2023/11/07 16:59:30;;;;;;;9.00;7.25;;;;;;;;;;6286960;28;20048;-65
2023/11/07 17:02:32;;;;;;;9.15;5.28;;;;;;;;;;6283216;28;20056;-64
2023/11/07 17:05:34;;;;;;;11.57;5.05;;;;;;;;;;6282589;28;20063;-65
2023/11/07 17:08:38;;;;;;;11.52;5.97;;;;;;;;;;6276580;28;20523;-65
2023/11/07 17:11:41;;;;;;;12.20;6.53;;;;;;;;;;6282197;28;20048;-65
2023/11/07 17:14:43;;;;;;;44.72;29.95;;;;;;;;;;6280904;28;20259;-65
2023/11/07 17:17:50;;;;;;;12.93;7.32;;;;;;;;;;6279467;28;20159;-65
2023/11/07 17:20:52;;;;;;;10.85;7.13;;;;;;;;;;6284114;28;20047;-65
2023/11/07 17:23:55;;;;;;;9.15;2.40;;;;;;;;;;6281236;28;20057;-64
2023/11/07 17:26:57;;;;;;;9.18;6.72;;;;;;;;;;6274536;28;20045;-65
2023/11/07 17:29:59;;;;;;;14.07;5.45;;;;;;;;;;6280771;28;20041;-65
2023/11/07 17:33:02;;;;;;;8.40;7.57;;;;;;;;;;6267276;28;20044;-65
2023/11/07 17:36:07;;;;;;;10.90;6.57;;;;;;;;;;6271641;28;20037;-64
2023/11/07 17:39:15;;;;;;;7.60;2.92;;;;;;;;;;6274763;28;20955;-64
2023/11/07 17:42:18;;;;;;;7.53;5.47;;;;;;;;;;6285321;28;20099;-64
2023/11/07 17:45:22;;;;;;;12.00;2.25;;;;;;;;;;6282030;28;20044;-64
2023/11/07 17:48:24;;;;;;;6.93;3.95;;;;;;;;;;6284912;28;20049;-64
2023/11/07 17:51:26;;;;;;;9.13;4.35;;;;;;;;;;6278183;28;21427;-65
2023/11/07 17:54:28;;;;;;;8.38;4.82;;;;;;;;;;6283035;28;20047;-64
2023/11/07 17:57:32;;;;;;;5.07;4.57;;;;;;;;;;6281043;28;20040;-64
2023/11/07 18:00:34;;;;;;;5.63;4.47;;;;;;;;;;6280775;28;20056;-64
2023/11/07 18:03:36;;;;;;;5.72;1.60;;;;;;;;;;6277490;28;20060;-64
2023/11/07 18:06:40;;;;;;;6.80;2.13;;;;;;;;;;6285403;28;20171;-63
2023/11/07 18:09:42;;;;;;;6.45;3.55;;;;;;;;;;6287504;28;20079;-63
2023/11/07 18:12:44;;;;;;;5.68;4.30;;;;;;;;;;6280912;28;20036;-64
2023/11/07 18:15:46;;;;;;;5.53;5.03;;;;;;;;;;6276707;28;20513;-63
2023/11/07 18:18:49;;;;;;;8.38;4.50;;;;;;;;;;6280815;28;20067;-63
2023/11/07 18:22:00;;;;;;;8.45;5.18;;;;;;;;;;6280704;28;20048;-64
2023/11/07 18:25:05;;;;;;;5.45;2.10;;;;;;;;;;6270365;28;20273;-63
2023/11/07 18:28:08;;;;;;;8.20;4.25;;;;;;;;;;6274263;28;20152;-64
2023/11/07 18:31:12;;;;;;;8.82;7.53;;;;;;;;;;6274789;28;20048;-64
2023/11/07 18:34:16;;;;;;;24.80;16.65;;;;;;;;;;6260086;28;20048;-63
2023/11/07 18:37:25;;;;;;;225.18;170.13;;;;;;;;;;6279544;28;20099;-64
2023/11/07 18:40:27;;;;;;;47.80;37.63;;;;;;;;;;6273000;28;20505;-63
2023/11/07 18:43:30;;;;;;;20.52;17.35;;;;;;;;;;6279897;28;20086;-63
2023/11/07 18:46:33;;;;;;;54.78;40.67;;;;;;;;;;6279828;28;20036;-63
2023/11/07 18:49:35;;;;;;;21.52;15.55;;;;;;;;;;6282519;28;20052;-63
2023/11/07 18:52:38;;;;;;;18.88;14.63;;;;;;;;;;6280453;28;20101;-63
2023/11/07 18:55:40;;;;;;;17.67;14.73;;;;;;;;;;6280978;28;20037;-63
2023/11/07 18:58:42;;;;;;;20.77;11.75;;;;;;;;;;6282689;28;20056;-63
2023/11/07 19:01:45;;;;;;;16.83;8.98;;;;;;;;;;6282055;28;20045;-63
2023/11/07 19:04:47;;;;;;;11.63;9.20;;;;;;;;;;6278311;28;20061;-63
2023/11/07 19:07:49;;;;;;;12.07;8.63;;;;;;;;;;6283780;28;20055;-64
2023/11/07 19:11:39;;;;;;;9.98;7.22;;;;;;;;;;6275929;28;20321;-63
2023/11/07 19:14:41;;;;;;;9.70;3.90;;;;;;;;;;6227660;28;20048;-63
2023/11/07 19:17:46;;;;;;;11.23;9.38;;;;;;;;;;6276524;28;20041;-63